sensor_id;sensor_type;location;lat;lon;timestamp;pressure;altitude;pressure_sealevel;temperature;humidity
17711;BME280;8975;57.718;12.134;2022-07-19T00:01:33;115940.22;;;-142.68;100.00
17711;BME280;8975;57.718;12.134;2022-07-19T00:03:59;115940.22;;;-142.68;100.00
17711;BME280;8975;57.718;12.134;2022-07-19T00:06:24;115940.22;;;-142.68;100.00
17711;BME280;8975;57.718;12.134;2022-07-19T00:08:50;115940.22;;;-142.68;100.00
17711;BME280;8975;57.718;12.134;2022-07-19T00:11:16;115940.22;;;-142.68;100.00
17711;BME280;8975;57.718;12.134;2022-07-19T00:13:41;115940.22;;;-142.68;100.00
17711;BME280;8975;57.718;12.134;2022-07-19T00:16:07;115940.22;;;-142.68;100.00
17711;BME280;8975;57.718;12.134;2022-07-19T00:18:32;115940.22;;;-142.68;100.00
17711;BME280;8975;57.718;12.134;2022-07-19T00:20:58;115940.22;;;-142.68;100.00
17711;BME280;8975;57.718;12.134;2022-07-19T00:23:23;115940.22;;;-142.68;100.00
17711;BME280;8975;57.718;12.134;2022-07-19T00:25:48;115940.22;;;-142.68;100.00
17711;BME280;8975;57.718;12.134;2022-07-19T00:28:14;115940.22;;;-142.68;100.00
17711;BME280;8975;57.718;12.134;2022-07-19T00:30:39;115940.22;;;-142.68;100.00
17711;BME280;8975;57.718;12.134;2022-07-19T00:33:05;115940.22;;;-142.68;100.00
17711;BME280;8975;57.718;12.134;2022-07-19T00:35:34;115940.22;;;-142.68;100.00
17711;BME280;8975;57.718;12.134;2022-07-19T00:38:11;115940.22;;;-142.68;100.00
17711;BME280;8975;57.718;12.134;2022-07-19T00:40:37;115940.22;;;-142.68;100.00
17711;BME280;8975;57.718;12.134;2022-07-19T00:43:04;115940.22;;;-142.68;100.00
17711;BME280;8975;57.718;12.134;2022-07-19T00:45:29;115940.22;;;-142.68;100.00
17711;BME280;8975;57.718;12.134;2022-07-19T00:47:55;115940.22;;;-142.68;100.00
17711;BME280;8975;57.718;12.134;2022-07-19T00:50:21;115940.22;;;-142.68;100.00
17711;BME280;8975;57.718;12.134;2022-07-19T00:52:50;115940.22;;;-142.68;100.00
17711;BME280;8975;57.718;12.134;2022-07-19T00:55:18;115940.22;;;-142.68;100.00
17711;BME280;8975;57.718;12.134;2022-07-19T00:57:44;115940.22;;;-142.68;100.00
17711;BME280;8975;57.718;12.134;2022-07-19T01:00:11;115940.22;;;-142.68;100.00
17711;BME280;8975;57.718;12.134;2022-07-19T01:02:37;115940.22;;;-142.68;100.00
17711;BME280;8975;57.718;12.134;2022-07-19T01:05:04;115940.22;;;-142.68;100.00
17711;BME280;8975;57.718;12.134;2022-07-19T01:07:30;115940.22;;;-142.68;100.00
17711;BME280;8975;57.718;12.134;2022-07-19T01:09:56;115940.22;;;-142.68;100.00
17711;BME280;8975;57.718;12.134;2022-07-19T01:12:21;115940.22;;;-142.68;100.00
17711;BME280;8975;57.718;12.134;2022-07-19T01:14:48;115940.22;;;-142.68;100.00
17711;BME280;8975;57.718;12.134;2022-07-19T01:17:14;115940.22;;;-142.68;100.00
17711;BME280;8975;57.718;12.134;2022-07-19T01:19:42;115940.22;;;-142.68;100.00
17711;BME280;8975;57.718;12.134;2022-07-19T01:22:07;115940.22;;;-142.68;100.00
17711;BME280;8975;57.718;12.134;2022-07-19T01:24:32;115940.22;;;-142.68;100.00
17711;BME280;8975;57.718;12.134;2022-07-19T01:26:57;115940.22;;;-142.68;100.00
17711;BME280;8975;57.718;12.134;2022-07-19T01:29:23;115940.22;;;-142.68;100.00
17711;BME280;8975;57.718;12.134;2022-07-19T01:31:48;115940.22;;;-142.68;100.00
17711;BME280;8975;57.718;12.134;2022-07-19T01:34:14;115940.22;;;-142.68;100.00
17711;BME280;8975;57.718;12.134;2022-07-19T01:36:39;115940.22;;;-142.68;100.00
17711;BME280;8975;57.718;12.134;2022-07-19T01:39:04;115940.22;;;-142.68;100.00
17711;BME280;8975;57.718;12.134;2022-07-19T01:41:30;115940.22;;;-142.68;100.00
17711;BME280;8975;57.718;12.134;2022-07-19T01:43:55;115940.22;;;-142.68;100.00
17711;BME280;8975;57.718;12.134;2022-07-19T01:46:21;115940.22;;;-142.68;100.00
17711;BME280;8975;57.718;12.134;2022-07-19T01:48:46;115940.22;;;-142.68;100.00
17711;BME280;8975;57.718;12.134;2022-07-19T01:51:11;115940.22;;;-142.68;100.00
17711;BME280;8975;57.718;12.134;2022-07-19T01:53:37;115940.22;;;-142.68;100.00
17711;BME280;8975;57.718;12.134;2022-07-19T01:56:06;115940.22;;;-142.68;100.00
17711;BME280;8975;57.718;12.134;2022-07-19T01:58:32;115940.22;;;-142.68;100.00
17711;BME280;8975;57.718;12.134;2022-07-19T02:00:57;115940.22;;;-142.68;100.00
17711;BME280;8975;57.718;12.134;2022-07-19T02:03:22;115940.22;;;-142.68;100.00
17711;BME280;8975;57.718;12.134;2022-07-19T02:05:48;115940.22;;;-142.68;100.00
17711;BME280;8975;57.718;12.134;2022-07-19T02:08:13;115940.22;;;-142.68;100.00
17711;BME280;8975;57.718;12.134;2022-07-19T02:10:38;115940.22;;;-142.68;100.00
17711;BME280;8975;57.718;12.134;2022-07-19T02:13:04;115940.22;;;-142.68;100.00
17711;BME280;8975;57.718;12.134;2022-07-19T02:15:29;115940.22;;;-142.68;100.00
17711;BME280;8975;57.718;12.134;2022-07-19T02:17:54;115940.22;;;-142.68;100.00
17711;BME280;8975;57.718;12.134;2022-07-19T02:20:21;115940.22;;;-142.68;100.00
17711;BME280;8975;57.718;12.134;2022-07-19T02:22:46;115940.22;;;-142.68;100.00
17711;BME280;8975;57.718;12.134;2022-07-19T02:25:12;115940.22;;;-142.68;100.00
17711;BME280;8975;57.718;12.134;2022-07-19T02:27:38;115940.22;;;-142.68;100.00
17711;BME280;8975;57.718;12.134;2022-07-19T02:30:04;115940.22;;;-142.68;100.00
17711;BME280;8975;57.718;12.134;2022-07-19T02:32:29;115940.22;;;-142.68;100.00
17711;BME280;8975;57.718;12.134;2022-07-19T02:34:55;115940.22;;;-142.68;100.00
17711;BME280;8975;57.718;12.134;2022-07-19T02:37:20;115940.22;;;-142.68;100.00
17711;BME280;8975;57.718;12.134;2022-07-19T02:39:45;115940.22;;;-142.68;100.00
17711;BME280;8975;57.718;12.134;2022-07-19T02:42:11;115940.22;;;-142.68;100.00
17711;BME280;8975;57.718;12.134;2022-07-19T02:44:36;115940.22;;;-142.68;100.00
17711;BME280;8975;57.718;12.134;2022-07-19T02:47:01;115940.22;;;-142.68;100.00
17711;BME280;8975;57.718;12.134;2022-07-19T02:49:27;115940.22;;;-142.68;100.00
17711;BME280;8975;57.718;12.134;2022-07-19T02:51:52;115940.22;;;-142.68;100.00
17711;BME280;8975;57.718;12.134;2022-07-19T02:54:17;115940.22;;;-142.68;100.00
17711;BME280;8975;57.718;12.134;2022-07-19T02:56:43;115940.22;;;-142.68;100.00
17711;BME280;8975;57.718;12.134;2022-07-19T02:59:08;115940.22;;;-142.68;100.00
17711;BME280;8975;57.718;12.134;2022-07-19T03:01:33;115940.22;;;-142.68;100.00
17711;BME280;8975;57.718;12.134;2022-07-19T03:03:59;115940.22;;;-142.68;100.00
17711;BME280;8975;57.718;12.134;2022-07-19T03:06:25;115940.22;;;-142.68;100.00
17711;BME280;8975;57.718;12.134;2022-07-19T03:08:50;115940.22;;;-142.68;100.00
17711;BME280;8975;57.718;12.134;2022-07-19T03:11:15;115940.22;;;-142.68;100.00
17711;BME280;8975;57.718;12.134;2022-07-19T03:13:41;115940.22;;;-142.68;100.00
17711;BME280;8975;57.718;12.134;2022-07-19T03:16:06;115940.22;;;-142.68;100.00
17711;BME280;8975;57.718;12.134;2022-07-19T03:18:32;115940.22;;;-142.68;100.00
17711;BME280;8975;57.718;12.134;2022-07-19T03:20:57;115940.22;;;-142.68;100.00
17711;BME280;8975;57.718;12.134;2022-07-19T03:23:25;115940.22;;;-142.68;100.00
17711;BME280;8975;57.718;12.134;2022-07-19T03:25:51;115940.22;;;-142.68;100.00
17711;BME280;8975;57.718;12.134;2022-07-19T03:28:17;115940.22;;;-142.68;100.00
17711;BME280;8975;57.718;12.134;2022-07-19T03:30:42;115940.22;;;-142.68;100.00
17711;BME280;8975;57.718;12.134;2022-07-19T03:33:09;115940.22;;;-142.68;100.00
17711;BME280;8975;57.718;12.134;2022-07-19T03:35:35;115940.22;;;-142.68;100.00
17711;BME280;8975;57.718;12.134;2022-07-19T03:38:01;115940.22;;;-142.68;100.00
17711;BME280;8975;57.718;12.134;2022-07-19T03:40:26;115940.22;;;-142.68;100.00
17711;BME280;8975;57.718;12.134;2022-07-19T03:42:52;115940.22;;;-142.68;100.00
17711;BME280;8975;57.718;12.134;2022-07-19T03:45:17;115940.22;;;-142.68;100.00
17711;BME280;8975;57.718;12.134;2022-07-19T03:47:43;115940.22;;;-142.68;100.00
17711;BME280;8975;57.718;12.134;2022-07-19T03:50:08;115940.22;;;-142.68;100.00
17711;BME280;8975;57.718;12.134;2022-07-19T03:52:33;115940.22;;;-142.68;100.00
17711;BME280;8975;57.718;12.134;2022-07-19T03:54:59;115940.22;;;-142.68;100.00
17711;BME280;8975;57.718;12.134;2022-07-19T03:57:24;115940.22;;;-142.68;100.00
17711;BME280;8975;57.718;12.134;2022-07-19T03:59:49;115940.22;;;-142.68;100.00
17711;BME280;8975;57.718;12.134;2022-07-19T04:02:15;115940.22;;;-142.68;100.00
17711;BME280;8975;57.718;12.134;2022-07-19T04:04:40;115940.22;;;-142.68;100.00
17711;BME280;8975;57.718;12.134;2022-07-19T04:07:06;115940.22;;;-142.68;100.00
17711;BME280;8975;57.718;12.134;2022-07-19T04:09:31;115940.22;;;-142.68;100.00
17711;BME280;8975;57.718;12.134;2022-07-19T04:11:56;115940.22;;;-142.68;100.00
17711;BME280;8975;57.718;12.134;2022-07-19T04:14:22;115940.22;;;-142.68;100.00
17711;BME280;8975;57.718;12.134;2022-07-19T04:16:47;115940.22;;;-142.68;100.00
17711;BME280;8975;57.718;12.134;2022-07-19T04:19:12;115940.22;;;-142.68;100.00
17711;BME280;8975;57.718;12.134;2022-07-19T04:21:38;115940.22;;;-142.68;100.00
17711;BME280;8975;57.718;12.134;2022-07-19T04:24:03;115940.22;;;-142.68;100.00
17711;BME280;8975;57.718;12.134;2022-07-19T04:26:29;115940.22;;;-142.68;100.00
17711;BME280;8975;57.718;12.134;2022-07-19T04:28:54;115940.22;;;-142.68;100.00
17711;BME280;8975;57.718;12.134;2022-07-19T04:31:19;115940.22;;;-142.68;100.00
17711;BME280;8975;57.718;12.134;2022-07-19T04:33:45;115940.22;;;-142.68;100.00
17711;BME280;8975;57.718;12.134;2022-07-19T04:36:10;115940.22;;;-142.68;100.00
17711;BME280;8975;57.718;12.134;2022-07-19T04:38:35;115940.22;;;-142.68;100.00
17711;BME280;8975;57.718;12.134;2022-07-19T04:41:01;115940.22;;;-142.68;100.00
17711;BME280;8975;57.718;12.134;2022-07-19T04:43:26;115940.22;;;-142.68;100.00
17711;BME280;8975;57.718;12.134;2022-07-19T04:45:52;115940.22;;;-142.68;100.00
17711;BME280;8975;57.718;12.134;2022-07-19T04:48:17;115940.22;;;-142.68;100.00
17711;BME280;8975;57.718;12.134;2022-07-19T04:50:42;115940.22;;;-142.68;100.00
17711;BME280;8975;57.718;12.134;2022-07-19T04:53:08;115940.22;;;-142.68;100.00
17711;BME280;8975;57.718;12.134;2022-07-19T04:55:36;115940.22;;;-142.68;100.00
17711;BME280;8975;57.718;12.134;2022-07-19T04:58:02;115940.22;;;-142.68;100.00
17711;BME280;8975;57.718;12.134;2022-07-19T05:00:27;115940.22;;;-142.68;100.00
17711;BME280;8975;57.718;12.134;2022-07-19T05:02:54;115940.22;;;-142.68;100.00
17711;BME280;8975;57.718;12.134;2022-07-19T05:05:20;115940.22;;;-142.68;100.00
17711;BME280;8975;57.718;12.134;2022-07-19T05:07:45;115940.22;;;-142.68;100.00
17711;BME280;8975;57.718;12.134;2022-07-19T05:10:11;115940.22;;;-142.68;100.00
17711;BME280;8975;57.718;12.134;2022-07-19T05:12:37;115940.22;;;-142.68;100.00
17711;BME280;8975;57.718;12.134;2022-07-19T05:15:03;115940.22;;;-142.68;100.00
17711;BME280;8975;57.718;12.134;2022-07-19T05:17:28;115940.22;;;-142.68;100.00
17711;BME280;8975;57.718;12.134;2022-07-19T05:19:54;115940.22;;;-142.68;100.00
17711;BME280;8975;57.718;12.134;2022-07-19T05:22:19;115940.22;;;-142.68;100.00
17711;BME280;8975;57.718;12.134;2022-07-19T05:24:44;115940.22;;;-142.68;100.00
17711;BME280;8975;57.718;12.134;2022-07-19T05:27:10;115940.22;;;-142.68;100.00
17711;BME280;8975;57.718;12.134;2022-07-19T05:29:35;115940.22;;;-142.68;100.00
17711;BME280;8975;57.718;12.134;2022-07-19T05:32:00;115940.22;;;-142.68;100.00
17711;BME280;8975;57.718;12.134;2022-07-19T05:34:26;115940.22;;;-142.68;100.00
17711;BME280;8975;57.718;12.134;2022-07-19T05:36:51;115940.22;;;-142.68;100.00
17711;BME280;8975;57.718;12.134;2022-07-19T05:39:17;115940.22;;;-142.68;100.00
17711;BME280;8975;57.718;12.134;2022-07-19T05:41:42;115940.22;;;-142.68;100.00
17711;BME280;8975;57.718;12.134;2022-07-19T05:44:08;115940.22;;;-142.68;100.00
17711;BME280;8975;57.718;12.134;2022-07-19T05:46:34;115940.22;;;-142.68;100.00
17711;BME280;8975;57.718;12.134;2022-07-19T05:49:02;115940.22;;;-142.68;100.00
17711;BME280;8975;57.718;12.134;2022-07-19T05:51:27;115940.22;;;-142.68;100.00
17711;BME280;8975;57.718;12.134;2022-07-19T05:53:53;115940.22;;;-142.68;100.00
17711;BME280;8975;57.718;12.134;2022-07-19T05:56:18;115940.22;;;-142.68;100.00
17711;BME280;8975;57.718;12.134;2022-07-19T05:58:43;115940.22;;;-142.68;100.00
17711;BME280;8975;57.718;12.134;2022-07-19T06:01:09;115940.22;;;-142.68;100.00
17711;BME280;8975;57.718;12.134;2022-07-19T06:03:47;115940.22;;;-142.68;100.00
17711;BME280;8975;57.718;12.134;2022-07-19T06:06:13;115940.22;;;-142.68;100.00
17711;BME280;8975;57.718;12.134;2022-07-19T06:08:39;115940.22;;;-142.68;100.00
17711;BME280;8975;57.718;12.134;2022-07-19T06:11:05;115940.22;;;-142.68;100.00
17711;BME280;8975;57.718;12.134;2022-07-19T06:13:30;115940.22;;;-142.68;100.00
17711;BME280;8975;57.718;12.134;2022-07-19T06:15:56;115940.22;;;-142.68;100.00
17711;BME280;8975;57.718;12.134;2022-07-19T06:18:21;115940.22;;;-142.68;100.00
17711;BME280;8975;57.718;12.134;2022-07-19T06:20:46;115940.22;;;-142.68;100.00
17711;BME280;8975;57.718;12.134;2022-07-19T06:23:12;115940.22;;;-142.68;100.00
17711;BME280;8975;57.718;12.134;2022-07-19T06:25:37;115940.22;;;-142.68;100.00
17711;BME280;8975;57.718;12.134;2022-07-19T06:28:03;115940.22;;;-142.68;100.00
17711;BME280;8975;57.718;12.134;2022-07-19T06:30:28;115940.22;;;-142.68;100.00
17711;BME280;8975;57.718;12.134;2022-07-19T06:32:53;115940.22;;;-142.68;100.00
17711;BME280;8975;57.718;12.134;2022-07-19T06:35:19;115940.22;;;-142.68;100.00
17711;BME280;8975;57.718;12.134;2022-07-19T06:37:44;115940.22;;;-142.68;100.00
17711;BME280;8975;57.718;12.134;2022-07-19T06:40:10;115940.22;;;-142.68;100.00
17711;BME280;8975;57.718;12.134;2022-07-19T06:42:35;115940.22;;;-142.68;100.00
17711;BME280;8975;57.718;12.134;2022-07-19T06:45:01;115940.22;;;-142.68;100.00
17711;BME280;8975;57.718;12.134;2022-07-19T06:47:28;115940.22;;;-142.68;100.00
17711;BME280;8975;57.718;12.134;2022-07-19T06:49:53;115940.22;;;-142.68;100.00
17711;BME280;8975;57.718;12.134;2022-07-19T06:52:18;115940.22;;;-142.68;100.00
17711;BME280;8975;57.718;12.134;2022-07-19T06:54:44;115940.22;;;-142.68;100.00
17711;BME280;8975;57.718;12.134;2022-07-19T06:57:09;115940.22;;;-142.68;100.00
17711;BME280;8975;57.718;12.134;2022-07-19T06:59:34;115940.22;;;-142.68;100.00
17711;BME280;8975;57.718;12.134;2022-07-19T07:02:00;115940.22;;;-142.68;100.00
17711;BME280;8975;57.718;12.134;2022-07-19T07:04:25;115940.22;;;-142.68;100.00
17711;BME280;8975;57.718;12.134;2022-07-19T07:06:50;115940.22;;;-142.68;100.00
17711;BME280;8975;57.718;12.134;2022-07-19T07:09:16;115940.22;;;-142.68;100.00
17711;BME280;8975;57.718;12.134;2022-07-19T07:11:41;115940.22;;;-142.68;100.00
17711;BME280;8975;57.718;12.134;2022-07-19T07:14:06;115940.22;;;-142.68;100.00
17711;BME280;8975;57.718;12.134;2022-07-19T07:16:32;115940.22;;;-142.68;100.00
17711;BME280;8975;57.718;12.134;2022-07-19T07:18:57;115940.22;;;-142.68;100.00
17711;BME280;8975;57.718;12.134;2022-07-19T07:21:22;115940.22;;;-142.68;100.00
17711;BME280;8975;57.718;12.134;2022-07-19T07:23:48;115940.22;;;-142.68;100.00
17711;BME280;8975;57.718;12.134;2022-07-19T07:26:13;115940.22;;;-142.68;100.00
17711;BME280;8975;57.718;12.134;2022-07-19T07:28:39;115940.22;;;-142.68;100.00
17711;BME280;8975;57.718;12.134;2022-07-19T07:31:04;115940.22;;;-142.68;100.00
17711;BME280;8975;57.718;12.134;2022-07-19T07:33:30;115940.22;;;-142.68;100.00
17711;BME280;8975;57.718;12.134;2022-07-19T07:35:57;115940.22;;;-142.68;100.00
17711;BME280;8975;57.718;12.134;2022-07-19T07:38:23;115940.22;;;-142.68;100.00
17711;BME280;8975;57.718;12.134;2022-07-19T07:40:48;115940.22;;;-142.68;100.00
17711;BME280;8975;57.718;12.134;2022-07-19T07:43:13;115940.22;;;-142.68;100.00
17711;BME280;8975;57.718;12.134;2022-07-19T07:45:39;115940.22;;;-142.68;100.00
17711;BME280;8975;57.718;12.134;2022-07-19T07:48:04;115940.22;;;-142.68;100.00
17711;BME280;8975;57.718;12.134;2022-07-19T07:50:30;115940.22;;;-142.68;100.00
17711;BME280;8975;57.718;12.134;2022-07-19T07:52:55;115940.22;;;-142.68;100.00
17711;BME280;8975;57.718;12.134;2022-07-19T07:55:21;115940.22;;;-142.68;100.00
17711;BME280;8975;57.718;12.134;2022-07-19T07:57:46;115940.22;;;-142.68;100.00
17711;BME280;8975;57.718;12.134;2022-07-19T08:00:12;115940.22;;;-142.68;100.00
17711;BME280;8975;57.718;12.134;2022-07-19T08:02:40;115940.22;;;-142.68;100.00
17711;BME280;8975;57.718;12.134;2022-07-19T08:05:06;115940.22;;;-142.68;100.00
17711;BME280;8975;57.718;12.134;2022-07-19T08:07:31;115940.22;;;-142.68;100.00
17711;BME280;8975;57.718;12.134;2022-07-19T08:09:56;115940.22;;;-142.68;100.00
17711;BME280;8975;57.718;12.134;2022-07-19T08:12:24;115940.22;;;-142.68;100.00
17711;BME280;8975;57.718;12.134;2022-07-19T08:14:50;115940.22;;;-142.68;100.00
17711;BME280;8975;57.718;12.134;2022-07-19T08:17:15;115940.22;;;-142.68;100.00
17711;BME280;8975;57.718;12.134;2022-07-19T08:19:41;115940.22;;;-142.68;100.00
17711;BME280;8975;57.718;12.134;2022-07-19T08:22:06;115940.22;;;-142.68;100.00
17711;BME280;8975;57.718;12.134;2022-07-19T08:24:31;115940.22;;;-142.68;100.00
17711;BME280;8975;57.718;12.134;2022-07-19T08:26:57;115940.22;;;-142.68;100.00
17711;BME280;8975;57.718;12.134;2022-07-19T08:29:22;115940.22;;;-142.68;100.00
17711;BME280;8975;57.718;12.134;2022-07-19T08:31:47;115940.22;;;-142.68;100.00
17711;BME280;8975;57.718;12.134;2022-07-19T08:34:12;115940.22;;;-142.68;100.00
17711;BME280;8975;57.718;12.134;2022-07-19T08:36:38;115940.22;;;-142.68;100.00
17711;BME280;8975;57.718;12.134;2022-07-19T08:39:03;115940.22;;;-142.68;100.00
17711;BME280;8975;57.718;12.134;2022-07-19T08:41:29;115940.22;;;-142.68;100.00
17711;BME280;8975;57.718;12.134;2022-07-19T08:43:54;115940.22;;;-142.68;100.00
17711;BME280;8975;57.718;12.134;2022-07-19T08:46:20;115940.22;;;-142.68;100.00
17711;BME280;8975;57.718;12.134;2022-07-19T08:48:48;115940.22;;;-142.68;100.00
17711;BME280;8975;57.718;12.134;2022-07-19T08:51:18;115940.22;;;-142.68;100.00
17711;BME280;8975;57.718;12.134;2022-07-19T08:53:44;115940.22;;;-142.68;100.00
17711;BME280;8975;57.718;12.134;2022-07-19T08:56:11;115940.22;;;-142.68;100.00
17711;BME280;8975;57.718;12.134;2022-07-19T08:58:55;115940.22;;;-142.68;100.00
17711;BME280;8975;57.718;12.134;2022-07-19T09:01:20;115940.22;;;-142.68;100.00
17711;BME280;8975;57.718;12.134;2022-07-19T09:04:05;115940.22;;;-142.68;100.00
17711;BME280;8975;57.718;12.134;2022-07-19T09:06:39;115940.22;;;-142.68;100.00
17711;BME280;8975;57.718;12.134;2022-07-19T09:09:05;115940.22;;;-142.68;100.00
17711;BME280;8975;57.718;12.134;2022-07-19T09:11:42;115940.22;;;-142.68;100.00
17711;BME280;8975;57.718;12.134;2022-07-19T09:14:15;115940.22;;;-142.68;100.00
17711;BME280;8975;57.718;12.134;2022-07-19T09:19:38;115940.22;;;-142.68;99.46
17711;BME280;8975;57.718;12.134;2022-07-19T09:22:11;115940.22;;;-142.68;98.82
17711;BME280;8975;57.718;12.134;2022-07-19T09:24:41;115940.22;;;-142.68;96.70
17711;BME280;8975;57.718;12.134;2022-07-19T09:29:36;115940.22;;;-142.68;97.98
17711;BME280;8975;57.718;12.134;2022-07-19T09:34:36;115940.22;;;-142.68;98.73
17711;BME280;8975;57.718;12.134;2022-07-19T09:37:15;115940.22;;;-142.68;95.89
17711;BME280;8975;57.718;12.134;2022-07-19T09:39:42;115940.22;;;-142.68;92.89
17711;BME280;8975;57.718;12.134;2022-07-19T09:45:01;115940.22;;;-142.68;92.75
17711;BME280;8975;57.718;12.134;2022-07-19T09:47:32;115940.22;;;-142.68;91.42
17711;BME280;8975;57.718;12.134;2022-07-19T09:49:58;115940.22;;;-142.68;90.94
17711;BME280;8975;57.718;12.134;2022-07-19T09:52:24;115940.22;;;-142.68;92.84
17711;BME280;8975;57.718;12.134;2022-07-19T09:54:51;115940.22;;;-142.68;91.96
17711;BME280;8975;57.718;12.134;2022-07-19T09:57:21;115940.22;;;-142.68;88.18
17711;BME280;8975;57.718;12.134;2022-07-19T09:59:50;115940.22;;;-142.68;89.34
17711;BME280;8975;57.718;12.134;2022-07-19T10:02:18;115940.22;;;-142.68;90.70
17711;BME280;8975;57.718;12.134;2022-07-19T10:04:46;115940.22;;;-142.68;92.04
17711;BME280;8975;57.718;12.134;2022-07-19T10:07:12;115940.22;;;-142.68;89.13
17711;BME280;8975;57.718;12.134;2022-07-19T10:09:39;115940.22;;;-142.68;91.54
17711;BME280;8975;57.718;12.134;2022-07-19T10:12:05;115940.22;;;-142.68;88.51
17711;BME280;8975;57.718;12.134;2022-07-19T10:14:30;115940.22;;;-142.68;89.93
17711;BME280;8975;57.718;12.134;2022-07-19T10:19:37;115940.22;;;-142.68;88.59
17711;BME280;8975;57.718;12.134;2022-07-19T10:22:03;115940.22;;;-142.68;87.98
17711;BME280;8975;57.718;12.134;2022-07-19T10:27:54;115940.22;;;-142.68;86.92
17711;BME280;8975;57.718;12.134;2022-07-19T10:30:21;115940.22;;;-142.68;85.70
17711;BME280;8975;57.718;12.134;2022-07-19T10:32:52;115940.22;;;-142.68;86.14
17711;BME280;8975;57.718;12.134;2022-07-19T10:43:18;115940.22;;;-142.68;87.86
17711;BME280;8975;57.718;12.134;2022-07-19T10:48:49;115940.22;;;-142.68;85.73
17711;BME280;8975;57.718;12.134;2022-07-19T10:51:32;115940.22;;;-142.68;86.99
17711;BME280;8975;57.718;12.134;2022-07-19T10:54:02;115940.22;;;-142.68;85.09
17711;BME280;8975;57.718;12.134;2022-07-19T10:56:39;115940.22;;;-142.68;83.91
17711;BME280;8975;57.718;12.134;2022-07-19T10:59:12;115940.22;;;-142.68;84.63
17711;BME280;8975;57.718;12.134;2022-07-19T11:01:53;115940.22;;;-142.68;85.17
17711;BME280;8975;57.718;12.134;2022-07-19T11:04:23;115940.22;;;-142.68;85.58
17711;BME280;8975;57.718;12.134;2022-07-19T11:06:49;115940.22;;;-142.68;85.48
17711;BME280;8975;57.718;12.134;2022-07-19T11:09:15;115940.22;;;-142.68;84.48
17711;BME280;8975;57.718;12.134;2022-07-19T11:11:41;115940.22;;;-142.68;84.50
17711;BME280;8975;57.718;12.134;2022-07-19T11:14:06;115940.22;;;-142.68;85.97
17711;BME280;8975;57.718;12.134;2022-07-19T11:16:31;115940.22;;;-142.68;86.96
17711;BME280;8975;57.718;12.134;2022-07-19T11:19:07;115940.22;;;-142.68;84.18
17711;BME280;8975;57.718;12.134;2022-07-19T11:21:34;115940.22;;;-142.68;84.48
17711;BME280;8975;57.718;12.134;2022-07-19T11:24:05;115940.22;;;-142.68;84.71
17711;BME280;8975;57.718;12.134;2022-07-19T11:26:35;115940.22;;;-142.68;84.19
17711;BME280;8975;57.718;12.134;2022-07-19T11:29:02;115940.22;;;-142.68;83.66
17711;BME280;8975;57.718;12.134;2022-07-19T11:31:27;115940.22;;;-142.68;83.24
17711;BME280;8975;57.718;12.134;2022-07-19T11:33:54;115940.22;;;-142.68;84.00
17711;BME280;8975;57.718;12.134;2022-07-19T11:36:25;115940.22;;;-142.68;85.03
17711;BME280;8975;57.718;12.134;2022-07-19T11:38:56;115940.22;;;-142.68;82.92
17711;BME280;8975;57.718;12.134;2022-07-19T11:41:32;115940.22;;;-142.68;81.33
17711;BME280;8975;57.718;12.134;2022-07-19T11:44:06;115940.22;;;-142.68;83.90
17711;BME280;8975;57.718;12.134;2022-07-19T11:46:37;115940.22;;;-142.68;83.05
17711;BME280;8975;57.718;12.134;2022-07-19T11:49:04;115940.22;;;-142.68;83.71
17711;BME280;8975;57.718;12.134;2022-07-19T11:51:31;115940.22;;;-142.68;83.21
17711;BME280;8975;57.718;12.134;2022-07-19T11:53:58;115940.22;;;-142.68;84.17
17711;BME280;8975;57.718;12.134;2022-07-19T11:56:26;115940.22;;;-142.68;85.90
17711;BME280;8975;57.718;12.134;2022-07-19T11:58:54;115940.22;;;-142.68;84.53
17711;BME280;8975;57.718;12.134;2022-07-19T12:01:28;115940.22;;;-142.68;86.58
17711;BME280;8975;57.718;12.134;2022-07-19T12:03:59;115940.22;;;-142.68;83.96
17711;BME280;8975;57.718;12.134;2022-07-19T12:09:11;115940.22;;;-142.68;82.54
17711;BME280;8975;57.718;12.134;2022-07-19T12:14:26;115940.22;;;-142.68;85.44
17711;BME280;8975;57.718;12.134;2022-07-19T12:17:14;115940.22;;;-142.68;84.65
17711;BME280;8975;57.718;12.134;2022-07-19T12:19:43;115940.22;;;-142.68;84.72
17711;BME280;8975;57.718;12.134;2022-07-19T12:25:00;115940.22;;;-142.68;83.67
17711;BME280;8975;57.718;12.134;2022-07-19T12:27:25;115940.22;;;-142.68;85.31
17711;BME280;8975;57.718;12.134;2022-07-19T12:29:54;115940.22;;;-142.68;84.31
17711;BME280;8975;57.718;12.134;2022-07-19T12:32:39;115940.22;;;-142.68;83.58
17711;BME280;8975;57.718;12.134;2022-07-19T12:35:12;115940.22;;;-142.68;83.32
17711;BME280;8975;57.718;12.134;2022-07-19T12:37:41;115940.22;;;-142.68;83.30
17711;BME280;8975;57.718;12.134;2022-07-19T12:40:20;115940.22;;;-142.68;83.56
17711;BME280;8975;57.718;12.134;2022-07-19T12:42:50;115940.22;;;-142.68;80.80
17711;BME280;8975;57.718;12.134;2022-07-19T12:45:18;115940.22;;;-142.68;82.85
17711;BME280;8975;57.718;12.134;2022-07-19T12:47:45;115940.22;;;-142.68;84.52
17711;BME280;8975;57.718;12.134;2022-07-19T12:50:23;115940.22;;;-142.68;83.41
17711;BME280;8975;57.718;12.134;2022-07-19T12:52:51;115940.22;;;-142.68;82.39
17711;BME280;8975;57.718;12.134;2022-07-19T12:55:16;115940.22;;;-142.68;81.04
17711;BME280;8975;57.718;12.134;2022-07-19T12:57:41;115940.22;;;-142.68;80.09